createdAt,value
2022-08-14T00:02:07.253Z,3.40
2022-08-14T00:04:42.453Z,2.40
2022-08-14T00:07:14.139Z,2.90
2022-08-14T00:10:01.589Z,2.50
2022-08-14T00:12:48.280Z,3.00
2022-08-14T00:15:43.880Z,3.15
2022-08-14T00:19:05.376Z,2.80
2022-08-14T00:21:01.808Z,2.70
2022-08-14T00:23:29.961Z,3.03
2022-08-14T00:26:05.722Z,2.90
2022-08-14T00:28:36.179Z,3.45
2022-08-14T00:31:06.551Z,2.83
2022-08-14T00:33:52.311Z,2.70
2022-08-14T00:36:36.954Z,3.10
2022-08-14T00:39:11.532Z,2.85
2022-08-14T00:41:38.935Z,3.10
2022-08-14T00:44:07.064Z,3.08
2022-08-14T00:46:36.278Z,3.95
2022-08-14T00:49:03.798Z,3.25
2022-08-14T00:51:34.672Z,3.63
2022-08-14T00:54:21.316Z,3.42
2022-08-14T00:59:24.981Z,3.47
2022-08-14T01:01:54.417Z,3.67
2022-08-14T01:04:38.478Z,3.83
2022-08-14T01:07:10.637Z,3.75
2022-08-14T01:09:39.236Z,3.60
2022-08-14T01:12:07.936Z,4.03
2022-08-14T01:14:35.747Z,3.67
2022-08-14T01:17:02.853Z,3.55
2022-08-14T01:19:49.407Z,4.40
2022-08-14T01:22:19.198Z,3.90
2022-08-14T01:24:47.351Z,3.67
2022-08-14T01:27:17.635Z,3.70
2022-08-14T01:30:03.825Z,3.85
2022-08-14T01:32:37.434Z,4.60
2022-08-14T01:35:17.357Z,4.68
2022-08-14T01:37:54.450Z,4.47
2022-08-14T01:40:33.142Z,4.07
2022-08-14T01:43:03.665Z,4.90
2022-08-14T01:45:35.710Z,4.70
2022-08-14T01:48:13.906Z,4.70
2022-08-14T01:50:42.210Z,4.47
2022-08-14T01:53:09.603Z,4.97
2022-08-14T01:55:40.301Z,4.70
2022-08-14T01:58:19.666Z,4.50
2022-08-14T02:00:54.383Z,5.07
2022-08-14T02:03:30.097Z,4.75
2022-08-14T02:06:04.069Z,4.63
2022-08-14T02:08:53.209Z,4.75
2022-08-14T02:11:22.705Z,4.88
2022-08-14T02:13:53.744Z,4.72
2022-08-14T02:16:26.428Z,5.03
2022-08-14T02:18:59.433Z,4.80
2022-08-14T02:21:31.990Z,4.80
2022-08-14T02:24:39.014Z,4.88
2022-08-14T02:28:25.369Z,5.07
2022-08-14T02:30:00.190Z,5.13
2022-08-14T02:32:46.886Z,5.13
2022-08-14T02:35:19.279Z,5.45
2022-08-14T02:37:50.110Z,5.32
2022-08-14T02:40:32.584Z,5.00
2022-08-14T02:43:02.607Z,5.32
2022-08-14T02:45:38.625Z,4.68
2022-08-14T02:49:03.319Z,5.63
2022-08-14T02:51:00.781Z,5.18
2022-08-14T02:53:33.499Z,5.05
2022-08-14T02:56:03.049Z,5.28
2022-08-14T02:58:32.309Z,5.68
2022-08-14T03:01:01.432Z,5.47
2022-08-14T03:03:31.762Z,5.47
2022-08-14T03:05:58.877Z,5.72
2022-08-14T03:08:31.781Z,5.65
2022-08-14T03:11:07.753Z,5.88
2022-08-14T03:13:42.835Z,5.97
2022-08-14T03:16:20.171Z,5.95
2022-08-14T03:18:59.796Z,5.68
2022-08-14T03:21:27.256Z,6.03
2022-08-14T03:24:21.737Z,6.03
2022-08-14T03:26:49.917Z,5.80
2022-08-14T03:29:26.233Z,6.43
2022-08-14T03:31:53.868Z,6.00
2022-08-14T03:34:24.910Z,5.55
2022-08-14T03:39:09.423Z,6.28
2022-08-14T03:40:00.455Z,6.78
2022-08-14T03:42:31.098Z,6.32
2022-08-14T03:45:18.905Z,6.40
2022-08-14T03:47:58.416Z,6.13
2022-08-14T03:50:27.932Z,6.50
2022-08-14T03:53:03.273Z,6.28
2022-08-14T03:55:31.032Z,6.28
2022-08-14T03:58:00.376Z,6.03
2022-08-14T04:00:43.575Z,6.70
2022-08-14T04:03:18.032Z,6.57
2022-08-14T04:05:50.405Z,6.68
2022-08-14T04:08:23.102Z,7.00
2022-08-14T04:10:57.530Z,6.40
2022-08-14T04:13:25.104Z,6.85
2022-08-14T04:16:01.402Z,6.47
2022-08-14T04:18:33.718Z,5.93
2022-08-14T04:21:01.195Z,6.70
2022-08-14T04:23:29.636Z,6.45
2022-08-14T04:26:01.613Z,6.57
2022-08-14T04:29:06.742Z,6.72
2022-08-14T04:31:25.063Z,7.18
2022-08-14T04:34:07.952Z,6.80
2022-08-14T04:36:55.356Z,7.22
2022-08-14T04:39:46.491Z,6.70
2022-08-14T04:42:32.363Z,6.47
2022-08-14T04:45:00.812Z,6.43
2022-08-14T04:47:46.734Z,6.90
2022-08-14T04:50:25.864Z,6.95
2022-08-14T04:53:00.832Z,7.00
2022-08-14T04:55:29.986Z,6.90
2022-08-14T04:57:57.873Z,7.25
2022-08-14T05:00:27.421Z,7.00
2022-08-14T05:02:56.494Z,6.50
2022-08-14T05:05:25.085Z,6.45
2022-08-14T05:08:01.325Z,6.75
2022-08-14T05:10:32.188Z,6.50
2022-08-14T05:13:13.483Z,6.40
2022-08-14T05:15:43.699Z,6.75
2022-08-14T05:18:17.681Z,6.20
2022-08-14T05:21:54.366Z,6.18
2022-08-14T05:23:50.662Z,6.20
2022-08-14T05:26:18.235Z,6.03
2022-08-14T05:28:46.483Z,6.10
2022-08-14T05:31:20.747Z,6.50
2022-08-14T05:33:56.420Z,6.93
2022-08-14T05:36:25.213Z,6.20
2022-08-14T05:38:54.083Z,6.45
2022-08-14T05:41:22.443Z,6.07
2022-08-14T05:43:51.164Z,5.93
2022-08-14T05:46:22.897Z,6.47
2022-08-14T05:48:56.276Z,6.45
2022-08-14T05:51:25.440Z,6.15
2022-08-14T05:54:01.746Z,6.53
2022-08-14T05:56:39.064Z,6.40
2022-08-14T05:59:06.259Z,6.13
2022-08-14T06:01:34.834Z,6.50
2022-08-14T06:04:04.625Z,6.75
2022-08-14T06:06:36.736Z,6.88
2022-08-14T06:09:05.745Z,6.20
2022-08-14T06:11:37.224Z,6.20
2022-08-14T06:14:04.498Z,7.43
2022-08-14T06:16:39.688Z,6.72
2022-08-14T06:19:11.303Z,6.15
2022-08-14T06:21:45.362Z,6.65
2022-08-14T06:24:18.166Z,6.90
2022-08-14T06:26:54.148Z,6.78
2022-08-14T06:29:23.489Z,6.18
2022-08-14T06:32:00.099Z,6.55
2022-08-14T06:35:10.433Z,5.97
2022-08-14T06:37:16.861Z,6.60
2022-08-14T06:39:44.371Z,6.82
2022-08-14T06:42:18.282Z,7.25
2022-08-14T06:45:02.881Z,6.88
2022-08-14T06:47:30.060Z,7.25
2022-08-14T06:49:57.849Z,7.28
2022-08-14T06:52:25.374Z,7.00
2022-08-14T06:54:52.337Z,7.32
2022-08-14T06:57:19.435Z,7.97
2022-08-14T06:59:48.681Z,6.93
2022-08-14T07:02:36.082Z,7.30
2022-08-14T07:05:23.294Z,7.13
2022-08-14T07:07:51.545Z,7.47
2022-08-14T07:10:18.881Z,7.10
2022-08-14T07:13:01.367Z,7.28
2022-08-14T07:15:29.628Z,7.15
2022-08-14T07:18:00.393Z,7.35
2022-08-14T07:20:31.090Z,7.72
2022-08-14T07:23:07.650Z,7.35
2022-08-14T07:25:37.718Z,7.13
2022-08-14T07:28:20.401Z,6.80
2022-08-14T07:30:50.762Z,7.43
2022-08-14T07:33:18.494Z,7.22
2022-08-14T07:35:58.529Z,7.40
2022-08-14T07:38:32.118Z,6.65
2022-08-14T07:41:03.641Z,6.80
2022-08-14T07:43:39.568Z,7.60
2022-08-14T07:46:07.590Z,7.00
2022-08-14T07:48:39.535Z,7.43
2022-08-14T07:51:11.213Z,6.80
2022-08-14T07:53:40.769Z,7.22
2022-08-14T07:56:21.813Z,6.78
2022-08-14T07:58:58.416Z,7.20
2022-08-14T08:01:27.993Z,7.18
2022-08-14T08:04:00.183Z,7.45
2022-08-14T08:06:29.587Z,6.72
2022-08-14T08:09:01.184Z,6.38
2022-08-14T08:11:34.881Z,7.10
2022-08-14T08:14:10.745Z,7.35
2022-08-14T08:16:46.547Z,7.25
2022-08-14T08:19:14.060Z,7.45
2022-08-14T08:21:43.560Z,6.93
2022-08-14T08:24:11.280Z,6.72
2022-08-14T08:26:41.827Z,6.90
2022-08-14T08:29:09.592Z,6.60
2022-08-14T08:31:52.259Z,6.85
2022-08-14T08:34:23.683Z,7.05
2022-08-14T08:36:52.702Z,7.05
2022-08-14T08:39:22.232Z,6.88
2022-08-14T08:41:50.663Z,7.00
2022-08-14T08:44:32.156Z,6.97
2022-08-14T08:47:05.585Z,6.95
2022-08-14T08:49:59.465Z,6.18
2022-08-14T08:55:23.715Z,7.00
2022-08-14T08:57:56.910Z,6.90
2022-08-14T09:00:26.512Z,6.32
2022-08-14T09:02:57.504Z,6.43
2022-08-14T09:05:25.221Z,6.38
2022-08-14T09:07:56.710Z,6.30
2022-08-14T09:10:23.862Z,6.32
2022-08-14T09:12:56.247Z,5.90
2022-08-14T09:15:24.197Z,6.13
2022-08-14T09:17:52.020Z,6.15
2022-08-14T09:20:25.803Z,5.82
2022-08-14T09:22:55.083Z,5.90
2022-08-14T09:25:58.718Z,6.05
2022-08-14T09:28:09.564Z,6.22
2022-08-14T09:30:40.304Z,5.35
2022-08-14T09:33:33.198Z,5.40
2022-08-14T09:36:12.141Z,5.75
2022-08-14T09:38:47.525Z,5.47
2022-08-14T09:42:21.747Z,5.25
2022-08-14T09:45:08.483Z,5.40
2022-08-14T09:47:49.172Z,5.68
2022-08-14T09:50:20.368Z,5.30
2022-08-14T09:52:56.740Z,4.72
2022-08-14T09:55:26.209Z,4.82
2022-08-14T09:58:19.301Z,4.28
2022-08-14T10:01:01.898Z,3.85
2022-08-14T10:03:36.344Z,4.40
2022-08-14T10:06:19.471Z,4.55
2022-08-14T10:09:03.098Z,4.80
2022-08-14T10:11:37.927Z,4.78
2022-08-14T10:14:29.438Z,4.30
2022-08-14T10:17:06.517Z,4.50
2022-08-14T10:19:35.955Z,5.13
2022-08-14T10:23:13.738Z,4.25
2022-08-14T10:24:56.343Z,4.57
2022-08-14T10:27:26.576Z,3.80
2022-08-14T10:30:00.831Z,3.95
2022-08-14T10:32:36.605Z,4.22
2022-08-14T10:35:13.585Z,4.13
2022-08-14T10:37:48.586Z,4.22
2022-08-14T10:40:38.629Z,4.25
2022-08-14T10:43:36.943Z,4.43
2022-08-14T10:47:36.207Z,4.13
2022-08-14T10:49:04.498Z,4.32
2022-08-14T10:51:36.239Z,4.40
2022-08-14T10:54:26.011Z,3.78
2022-08-14T10:56:56.019Z,4.00
2022-08-14T10:59:35.450Z,3.65
2022-08-14T11:02:44.953Z,4.00
2022-08-14T11:05:18.471Z,3.80
2022-08-14T11:10:40.878Z,3.50
2022-08-14T11:13:10.541Z,3.53
2022-08-14T11:15:38.000Z,3.40
2022-08-14T11:18:08.593Z,3.20
2022-08-14T11:20:41.580Z,3.40
2022-08-14T11:23:10.958Z,3.85
2022-08-14T11:25:43.809Z,3.40
2022-08-14T11:28:46.863Z,3.35
2022-08-14T11:31:14.039Z,2.83
2022-08-14T11:33:41.581Z,3.05
2022-08-14T11:36:18.447Z,2.85
2022-08-14T11:38:46.975Z,2.95
2022-08-14T11:41:17.338Z,3.03
2022-08-14T11:43:58.184Z,2.83
2022-08-14T11:46:30.619Z,2.63
2022-08-14T11:49:06.375Z,3.03
2022-08-14T11:51:50.732Z,3.10
2022-08-14T11:54:20.569Z,3.33
2022-08-14T11:57:02.384Z,3.50
2022-08-14T11:59:33.878Z,3.08
2022-08-14T12:03:03.454Z,3.15
2022-08-14T12:05:03.888Z,2.78
2022-08-14T12:07:32.147Z,3.63
2022-08-14T12:09:59.581Z,3.70
2022-08-14T12:12:36.029Z,3.53
2022-08-14T12:15:07.009Z,3.60
2022-08-14T12:17:47.612Z,3.05
2022-08-14T12:20:30.012Z,3.22
2022-08-14T12:23:00.737Z,3.10
2022-08-14T12:25:27.682Z,3.17
2022-08-14T12:28:01.220Z,2.90
2022-08-14T12:30:43.573Z,3.28
2022-08-14T12:33:30.756Z,3.50
2022-08-14T12:36:00.704Z,3.22
2022-08-14T12:38:44.935Z,3.10
2022-08-14T12:41:23.994Z,3.78
2022-08-14T12:43:53.647Z,3.50
2022-08-14T12:46:27.423Z,3.20
2022-08-14T12:48:57.369Z,3.05
2022-08-14T12:51:27.021Z,3.05
2022-08-14T12:53:59.672Z,3.05
2022-08-14T12:56:34.060Z,3.20
2022-08-14T12:59:02.021Z,2.88
2022-08-14T13:01:56.756Z,3.10
2022-08-14T13:04:18.793Z,2.88
2022-08-14T13:06:51.303Z,3.20
2022-08-14T13:09:23.196Z,3.50
2022-08-14T13:11:59.318Z,3.20
2022-08-14T13:14:47.799Z,3.22
2022-08-14T13:17:15.947Z,3.33
2022-08-14T13:19:45.422Z,3.38
2022-08-14T13:22:32.012Z,3.75
2022-08-14T13:25:02.876Z,3.60
2022-08-14T13:27:33.771Z,3.40
2022-08-14T13:30:10.218Z,3.13
2022-08-14T13:32:40.579Z,3.00
2022-08-14T13:35:11.998Z,3.30
2022-08-14T13:37:41.527Z,3.63
2022-08-14T13:40:09.315Z,3.90
2022-08-14T13:42:44.294Z,3.67
2022-08-14T13:45:12.521Z,4.45
2022-08-14T13:47:42.399Z,3.50
2022-08-14T13:50:20.354Z,3.97
2022-08-14T13:52:55.139Z,3.58
2022-08-14T13:55:28.087Z,3.30
2022-08-14T13:58:04.852Z,3.03
2022-08-14T14:00:52.924Z,3.75
2022-08-14T14:03:23.778Z,3.28
2022-08-14T14:05:54.224Z,3.45
2022-08-14T14:08:45.751Z,3.95
2022-08-14T14:11:10.418Z,4.32
2022-08-14T14:13:44.707Z,4.13
2022-08-14T14:16:15.229Z,3.63
2022-08-14T14:18:59.556Z,4.15
2022-08-14T14:21:30.680Z,4.85
2022-08-14T14:23:59.596Z,4.40
2022-08-14T14:26:29.478Z,3.67
2022-08-14T14:29:01.787Z,4.57
2022-08-14T14:31:31.394Z,4.30
2022-08-14T14:34:07.543Z,4.57
2022-08-14T14:36:52.735Z,4.45
2022-08-14T14:39:27.486Z,4.38
2022-08-14T14:41:59.720Z,4.40
2022-08-14T14:44:41.331Z,4.22
2022-08-14T14:47:11.171Z,4.50
2022-08-14T14:49:51.434Z,4.38
2022-08-14T14:52:27.144Z,4.60
2022-08-14T14:54:59.260Z,4.70
2022-08-14T14:57:35.823Z,4.60
2022-08-14T15:00:18.553Z,3.75
2022-08-14T15:02:52.453Z,4.45
2022-08-14T15:05:20.623Z,4.10
2022-08-14T15:07:49.785Z,4.10
2022-08-14T15:10:26.760Z,3.92
2022-08-14T15:13:00.182Z,4.47
2022-08-14T15:15:27.432Z,4.28
2022-08-14T15:17:54.671Z,4.25
2022-08-14T15:20:29.777Z,3.90
2022-08-14T15:23:01.096Z,4.47
2022-08-14T15:25:40.254Z,4.25
2022-08-14T15:28:11.485Z,4.50
2022-08-14T15:30:41.464Z,4.70
2022-08-14T15:33:09.280Z,4.13
2022-08-14T15:35:37.986Z,4.50
2022-08-14T15:38:13.781Z,3.90
2022-08-14T15:40:51.659Z,4.07
2022-08-14T15:43:27.298Z,3.72
2022-08-14T15:45:57.946Z,3.95
2022-08-14T15:48:25.738Z,4.05
2022-08-14T15:50:57.245Z,3.85
2022-08-14T15:53:24.828Z,3.70
2022-08-14T15:55:58.284Z,3.83
2022-08-14T15:58:25.867Z,3.65
2022-08-14T16:01:12.833Z,3.85
2022-08-14T16:03:42.429Z,3.65
2022-08-14T16:06:17.452Z,3.38
2022-08-14T16:08:50.310Z,3.15
2022-08-14T16:11:26.308Z,4.03
2022-08-14T16:13:57.562Z,3.65
2022-08-14T16:16:50.902Z,3.55
2022-08-14T16:19:18.798Z,3.40
2022-08-14T16:22:02.126Z,3.65
2022-08-14T16:25:02.286Z,3.80
2022-08-14T16:27:39.456Z,3.85
2022-08-14T16:30:20.760Z,3.80
2022-08-14T16:32:56.103Z,3.63
2022-08-14T16:35:41.894Z,3.38
2022-08-14T16:38:19.804Z,3.28
2022-08-14T16:41:27.283Z,3.40
2022-08-14T16:44:04.685Z,3.50
2022-08-14T16:46:43.501Z,3.72
2022-08-14T16:49:15.610Z,3.65
2022-08-14T16:51:45.121Z,3.75
2022-08-14T16:54:34.132Z,3.28
2022-08-14T16:57:26.006Z,3.78
2022-08-14T16:59:57.723Z,3.58
2022-08-14T17:02:42.791Z,3.88
2022-08-14T17:08:07.324Z,3.30
2022-08-14T17:10:53.349Z,3.67
2022-08-14T17:13:58.120Z,3.63
2022-08-14T17:16:24.276Z,4.00
2022-08-14T17:19:00.744Z,4.30
2022-08-14T17:21:40.894Z,5.50
2022-08-14T17:27:05.168Z,5.70
2022-08-14T17:29:44.286Z,4.07
2022-08-14T17:32:28.346Z,6.50
2022-08-14T17:34:57.665Z,5.50
2022-08-14T17:37:40.215Z,4.10
2022-08-14T17:40:17.823Z,4.13
2022-08-14T17:42:53.552Z,3.80
2022-08-14T17:45:43.244Z,4.40
2022-08-14T17:49:15.515Z,4.32
2022-08-14T17:51:23.954Z,3.90
2022-08-14T17:54:02.933Z,4.20
2022-08-14T17:56:34.173Z,5.40
2022-08-14T17:59:06.989Z,4.25
2022-08-14T18:01:46.372Z,5.85
2022-08-14T18:04:24.467Z,4.13
2022-08-14T18:07:16.677Z,4.22
2022-08-14T18:09:56.352Z,4.03
2022-08-14T18:12:36.746Z,4.65
2022-08-14T18:15:14.390Z,4.15
2022-08-14T18:17:52.521Z,4.40
2022-08-14T18:21:42.569Z,3.90
2022-08-14T18:23:18.478Z,8.30
2022-08-14T18:25:52.669Z,5.78
2022-08-14T18:28:46.561Z,5.40
2022-08-14T18:31:22.809Z,5.15
2022-08-14T18:33:58.770Z,4.50
2022-08-14T18:36:47.235Z,4.45
2022-08-14T18:39:31.712Z,4.30
2022-08-14T18:42:04.739Z,4.60
2022-08-14T18:44:50.924Z,4.55
2022-08-14T18:47:22.019Z,4.30
2022-08-14T18:49:55.883Z,4.85
2022-08-14T18:52:34.508Z,4.85
2022-08-14T18:55:25.708Z,4.90
2022-08-14T18:57:58.231Z,4.22
2022-08-14T19:00:51.285Z,4.18
2022-08-14T19:03:18.629Z,4.10
2022-08-14T19:05:49.716Z,4.72
2022-08-14T19:08:22.120Z,5.43
2022-08-14T19:10:59.360Z,6.18
2022-08-14T19:13:48.630Z,9.68
2022-08-14T19:16:22.888Z,7.63
2022-08-14T19:19:00.490Z,5.28
2022-08-14T19:21:41.923Z,6.90
2022-08-14T19:24:43.739Z,6.00
2022-08-14T19:27:23.911Z,4.22
2022-08-14T19:30:20.529Z,4.07
2022-08-14T19:32:53.079Z,4.53
2022-08-14T19:35:48.643Z,4.55
2022-08-14T19:38:46.546Z,3.80
2022-08-14T19:41:22.134Z,4.38
2022-08-14T19:43:56.830Z,5.68
2022-08-14T19:46:37.736Z,5.00
2022-08-14T19:49:21.377Z,5.05
2022-08-14T19:51:50.411Z,6.07
2022-08-14T19:54:21.137Z,5.80
2022-08-14T19:56:54.122Z,5.32
2022-08-14T19:59:23.664Z,4.95
2022-08-14T20:01:52.592Z,8.27
2022-08-14T20:04:47.378Z,15.20
2022-08-14T20:08:00.640Z,7.15
2022-08-14T20:11:08.343Z,5.35
2022-08-14T20:13:32.628Z,4.75
2022-08-14T20:16:12.305Z,5.00
2022-08-14T20:18:51.996Z,6.43
2022-08-14T20:21:21.727Z,6.60
2022-08-14T20:23:49.667Z,5.85
2022-08-14T20:26:30.479Z,5.78
2022-08-14T20:29:04.737Z,5.80
2022-08-14T20:31:36.673Z,4.95
2022-08-14T20:34:18.985Z,4.68
2022-08-14T20:37:12.019Z,5.10
2022-08-14T20:39:45.415Z,4.32
2022-08-14T20:42:43.632Z,5.50
2022-08-14T20:45:27.788Z,5.10
2022-08-14T20:48:07.175Z,4.97
2022-08-14T20:50:45.030Z,4.57
2022-08-14T20:53:34.588Z,4.75
2022-08-14T20:56:28.303Z,4.63
2022-08-14T21:01:24.843Z,4.88
2022-08-14T21:04:20.855Z,5.35
2022-08-14T21:07:23.967Z,4.80
2022-08-14T21:10:06.396Z,5.70
2022-08-14T21:13:09.311Z,4.75
2022-08-14T21:15:38.693Z,5.15
2022-08-14T21:18:07.525Z,5.38
2022-08-14T21:20:37.189Z,4.68
2022-08-14T21:23:07.986Z,5.50
2022-08-14T21:25:35.961Z,5.43
2022-08-14T21:28:08.932Z,5.10
2022-08-14T21:30:56.132Z,5.25
2022-08-14T21:33:24.630Z,4.75
2022-08-14T21:35:55.800Z,4.22
2022-08-14T21:38:33.477Z,4.63
2022-08-14T21:41:50.022Z,4.88
2022-08-14T21:44:17.956Z,5.15
2022-08-14T21:46:56.652Z,5.00
2022-08-14T21:49:38.690Z,4.82
2022-08-14T21:52:51.346Z,4.95
2022-08-14T21:55:00.634Z,4.80
2022-08-14T21:57:55.905Z,4.75
2022-08-14T22:00:35.257Z,4.45
2022-08-14T22:03:09.025Z,4.63
2022-08-14T22:05:41.493Z,4.68
2022-08-14T22:08:12.401Z,4.68
2022-08-14T22:10:46.918Z,4.57
2022-08-14T22:13:22.669Z,4.60
2022-08-14T22:15:54.292Z,4.25
2022-08-14T22:18:35.041Z,4.60
2022-08-14T22:21:05.890Z,4.97
2022-08-14T22:23:35.771Z,4.40
2022-08-14T22:26:03.806Z,4.45
2022-08-14T22:28:32.700Z,4.18
2022-08-14T22:31:02.729Z,4.97
2022-08-14T22:33:31.191Z,4.55
2022-08-14T22:36:00.415Z,4.82
2022-08-14T22:38:35.536Z,4.50
2022-08-14T22:41:26.216Z,4.97
2022-08-14T22:43:53.790Z,4.53
2022-08-14T22:46:21.848Z,4.53
2022-08-14T22:48:51.304Z,4.47
2022-08-14T22:51:21.453Z,4.18
2022-08-14T22:53:52.487Z,4.55
2022-08-14T22:56:22.341Z,4.78
2022-08-14T22:59:01.435Z,4.60
2022-08-14T23:01:55.365Z,4.35
2022-08-14T23:04:35.822Z,4.75
2022-08-14T23:07:21.933Z,3.97
2022-08-14T23:09:57.627Z,4.35
2022-08-14T23:12:54.751Z,4.63
2022-08-14T23:15:24.192Z,4.65
2022-08-14T23:17:56.073Z,4.53
2022-08-14T23:20:23.711Z,4.13
2022-08-14T23:22:57.137Z,4.22
2022-08-14T23:25:57.367Z,4.30
2022-08-14T23:28:33.548Z,4.20
2022-08-14T23:31:08.339Z,4.78
2022-08-14T23:33:46.078Z,4.43
2022-08-14T23:36:32.015Z,4.28
2022-08-14T23:39:10.567Z,3.83
2022-08-14T23:41:46.283Z,4.20
2022-08-14T23:44:21.638Z,3.63
2022-08-14T23:46:52.688Z,3.80
2022-08-14T23:49:25.513Z,3.95
2022-08-14T23:52:51.035Z,4.00
2022-08-14T23:54:48.895Z,3.67
2022-08-14T23:57:19.178Z,4.30
2022-08-14T23:59:54.414Z,3.63
